»·PEaware :: N420TW KRNO-KSQL

N420TW :: KRNO-KSQL

FLIGHT INFORMATION

Flight Status: Arrived
Operator: Privately registered:
United States
More flights under this callsign
Pilot: Chris B. (23589)
Aircraft: CESSNA 172 SKYHAWK
(C172)
More flights by this aircraft type
Origin: KRNO Reno/Tahoe Intl
United States
Destination: KSQL San Carlos
United States
More flights between these airports :: More routes between these airports
Route: +FMG8 FMG V392 ALTAM V334 SJC
File this flight plan on PilotEdge
Remarks: GPS approach at KSQL
Altitude:
(Current/Filed)
8,000ft
Speed:
(Current/Filed)
120kts
Departed: 17-Mar-20 03:56 PM
Arrived: 17-Mar-20 07:19 PM
Distance/Time
Traveled:
167nm/3:23
Distance/Time
To Go:
Arrived

Flight Plot

Page will automatically refresh every two minutes.

Flight plan parsing failed; only flown route is shown


Map Options




Map Legend


Flown Route
Filed Route
Departure Airport
Arrival Airport
Navaid (VOR, NDB)
Fix

Horizontal Profiles

Position Reports

Time Latitude Longitude Heading Altitude Ground
Speed
17-Mar-20 15:08 39.508417 -119.765301 181 4419ft 0kts
17-Mar-20 15:09 39.508417 -119.765301 181 4419ft 0kts
17-Mar-20 15:10 39.508417 -119.765301 181 4419ft 0kts
17-Mar-20 15:11 39.508417 -119.765301 181 4419ft 0kts
17-Mar-20 15:12 39.508417 -119.765301 181 4419ft 0kts
17-Mar-20 15:13 39.508417 -119.765301 181 4419ft 0kts
17-Mar-20 15:14 39.508417 -119.765301 181 4419ft 0kts
17-Mar-20 15:15 39.508417 -119.765301 181 4419ft 0kts
17-Mar-20 15:16 39.508417 -119.765301 181 4419ft 0kts
17-Mar-20 15:17 39.508417 -119.765301 181 4419ft 0kts
17-Mar-20 15:18 39.508417 -119.765301 181 4419ft 0kts
17-Mar-20 15:19 39.508417 -119.765301 181 4419ft 0kts
17-Mar-20 15:20 39.508417 -119.765301 181 4419ft 0kts
17-Mar-20 15:21 39.508417 -119.765301 181 4419ft 0kts
17-Mar-20 15:22 39.508417 -119.765301 181 4419ft 0kts
17-Mar-20 15:23 39.508417 -119.765301 181 4419ft 0kts
17-Mar-20 15:24 39.508417 -119.765301 181 4419ft 0kts
17-Mar-20 15:25 39.508417 -119.765301 181 4419ft 0kts
17-Mar-20 15:26 39.508417 -119.765301 181 4419ft 0kts
17-Mar-20 15:26 39.508417 -119.765301 181 4419ft 0kts
17-Mar-20 15:28 39.508417 -119.765301 181 4419ft 0kts
17-Mar-20 15:28 39.508417 -119.765301 181 4419ft 0kts
17-Mar-20 15:29 39.508417 -119.765301 181 4419ft 0kts
17-Mar-20 15:31 39.508417 -119.765301 181 4419ft 0kts
17-Mar-20 15:31 39.508417 -119.765301 181 4419ft 0kts
17-Mar-20 15:32 39.508417 -119.765301 181 4419ft 0kts
17-Mar-20 15:33 39.508417 -119.765301 181 4419ft 0kts
17-Mar-20 15:34 39.508417 -119.765301 181 4419ft 0kts
17-Mar-20 15:35 39.508417 -119.765301 181 4419ft 0kts
17-Mar-20 15:36 39.508417 -119.765301 181 4419ft 0kts
17-Mar-20 15:38 39.508417 -119.765301 181 4419ft 0kts
17-Mar-20 15:38 39.508417 -119.765301 181 4419ft 0kts
17-Mar-20 15:39 39.508417 -119.765301 181 4419ft 0kts
17-Mar-20 15:40 39.508417 -119.765301 181 4419ft 0kts
17-Mar-20 15:41 39.508417 -119.765301 181 4419ft 0kts
17-Mar-20 15:42 39.508417 -119.765301 181 4419ft 0kts
17-Mar-20 15:43 39.508417 -119.765301 181 4419ft 0kts
17-Mar-20 15:44 39.508417 -119.765301 181 4419ft 0kts
17-Mar-20 15:45 39.508417 -119.765301 181 4419ft 0kts
17-Mar-20 15:46 39.508410 -119.765301 181 4419ft 0kts
17-Mar-20 15:47 39.508410 -119.765301 181 4419ft 0kts
17-Mar-20 15:48 39.508410 -119.765301 181 4419ft 0kts
17-Mar-20 15:49 39.508410 -119.765301 181 4419ft 0kts
17-Mar-20 15:50 39.508410 -119.765301 181 4419ft 0kts
17-Mar-20 15:51 39.508395 -119.765302 180 4419ft 1kts
17-Mar-20 15:52 39.509676 -119.765708 359 4419ft 17kts
17-Mar-20 15:53 39.513742 -119.765696 275 4419ft 0kts
17-Mar-20 15:54 39.512171 -119.766746 180 4419ft 36kts
17-Mar-20 15:55 39.489873 -119.764974 178 4905ft 85kts
17-Mar-20 15:56 39.466204 -119.768487 186 5584ft 87kts
17-Mar-20 15:57 39.441624 -119.769156 183 6231ft 89kts
17-Mar-20 15:58 39.420243 -119.758933 93 6833ft 91kts
17-Mar-20 15:59 39.434087 -119.734516 35 7423ft 84kts
17-Mar-20 16:00 39.453830 -119.718383 25 7985ft 85kts
17-Mar-20 16:01 39.474223 -119.701770 24 8527ft 88kts
17-Mar-20 16:02 39.495132 -119.684418 25 9052ft 90kts
17-Mar-20 16:03 39.517100 -119.667921 19 9556ft 92kts
17-Mar-20 16:04 39.527311 -119.676416 212 10025ft 80kts
17-Mar-20 16:05 39.506933 -119.685384 229 10548ft 73kts
17-Mar-20 16:06 39.499556 -119.707240 275 10975ft 76kts
17-Mar-20 16:07 39.502285 -119.737549 276 11364ft 86kts
17-Mar-20 16:08 39.505184 -119.768572 275 11824ft 87kts
17-Mar-20 16:09 39.500856 -119.796759 204 12073ft 88kts
17-Mar-20 16:10 39.493735 -119.829821 259 11499ft 80kts
17-Mar-20 16:11 39.484647 -119.854583 241 11623ft 84kts
17-Mar-20 16:12 39.479363 -119.882420 260 11997ft 83kts
17-Mar-20 16:13 39.476477 -119.915963 255 12007ft 101kts
17-Mar-20 16:14 39.471227 -119.950995 253 12002ft 93kts
17-Mar-20 16:15 39.465514 -119.982771 251 12004ft 88kts
17-Mar-20 16:16 39.459909 -120.013288 251 12004ft 86kts
17-Mar-20 16:17 39.454412 -120.043536 251 12004ft 86kts
17-Mar-20 16:18 39.448972 -120.073669 251 12005ft 85kts
17-Mar-20 16:19 39.444372 -120.099218 251 12005ft 85kts
17-Mar-20 16:20 39.438976 -120.129196 252 12005ft 85kts
17-Mar-20 16:21 39.433574 -120.159187 251 12005ft 85kts
17-Mar-20 16:22 39.428161 -120.189197 251 12006ft 85kts
17-Mar-20 16:23 39.422773 -120.219032 251 12006ft 85kts
17-Mar-20 16:24 39.417361 -120.248938 251 12008ft 85kts
17-Mar-20 16:25 39.411976 -120.278621 251 12017ft 84kts
17-Mar-20 16:26 39.406586 -120.308287 251 12026ft 84kts
17-Mar-20 16:27 39.401209 -120.337860 251 12035ft 84kts
17-Mar-20 16:28 39.395819 -120.367479 251 12044ft 84kts
17-Mar-20 16:29 39.390440 -120.396995 251 12053ft 84kts
17-Mar-20 16:30 39.385048 -120.426543 251 12061ft 84kts
17-Mar-20 16:31 39.379648 -120.456095 251 12070ft 84kts
17-Mar-20 16:32 39.374249 -120.485592 251 12079ft 84kts
17-Mar-20 16:33 39.368819 -120.515254 251 12079ft 84kts
17-Mar-20 16:34 39.363394 -120.544848 251 12079ft 84kts
17-Mar-20 16:35 39.357926 -120.574611 251 12078ft 84kts
17-Mar-20 16:36 39.352468 -120.604262 251 12078ft 84kts
17-Mar-20 16:37 39.346561 -120.633628 234 12079ft 83kts
17-Mar-20 16:38 39.329580 -120.653879 223 12082ft 84kts
17-Mar-20 16:39 39.311456 -120.673439 222 12082ft 85kts
17-Mar-20 16:40 39.292867 -120.692909 221 12082ft 86kts
17-Mar-20 16:41 39.273610 -120.711566 220 11799ft 87kts
17-Mar-20 16:42 39.253698 -120.731184 224 11099ft 93kts
17-Mar-20 16:43 39.233167 -120.752854 227 10414ft 98kts
17-Mar-20 16:44 39.213055 -120.777054 229 9798ft 100kts
17-Mar-20 16:45 39.191422 -120.800166 222 9279ft 102kts
17-Mar-20 16:46 39.168861 -120.822154 224 8835ft 101kts
17-Mar-20 16:47 39.146614 -120.844183 223 8437ft 100kts
17-Mar-20 16:48 39.124932 -120.866094 224 8081ft 98kts
17-Mar-20 16:49 39.103745 -120.888299 223 7963ft 97kts
17-Mar-20 16:50 39.082418 -120.909647 219 7969ft 97kts
17-Mar-20 16:51 39.061167 -120.931030 215 7974ft 98kts
17-Mar-20 16:52 39.038890 -120.953694 216 8015ft 104kts
17-Mar-20 16:53 39.015838 -120.977160 216 8002ft 106kts
17-Mar-20 17:08 39.508417 -119.765301 181 4419ft 0kts
17-Mar-20 17:09 39.508417 -119.765301 181 4419ft 0kts
17-Mar-20 17:10 39.508417 -119.765301 181 4419ft 0kts
17-Mar-20 17:11 39.508417 -119.765301 181 4419ft 0kts
17-Mar-20 17:12 39.508417 -119.765301 181 4419ft 0kts
17-Mar-20 17:14 39.508417 -119.765301 181 4419ft 0kts
17-Mar-20 17:15 39.508417 -119.765301 181 4419ft 0kts
17-Mar-20 17:16 39.508417 -119.765301 181 4419ft 0kts
17-Mar-20 17:17 39.508417 -119.765301 181 4419ft 0kts
17-Mar-20 17:18 39.510324 -119.765428 37 4419ft 14kts
17-Mar-20 17:19 39.513726 -119.765744 282 4419ft 0kts
17-Mar-20 17:20 39.513292 -119.766742 182 4419ft 18kts
17-Mar-20 17:21 39.495306 -119.766426 180 4754ft 82kts
17-Mar-20 17:22 39.472339 -119.769585 186 5396ft 83kts
17-Mar-20 17:23 39.449052 -119.769519 179 6004ft 84kts
17-Mar-20 17:24 39.427271 -119.764214 112 6571ft 85kts
17-Mar-20 17:25 39.437168 -119.738704 47 7204ft 83kts
17-Mar-20 17:26 39.453664 -119.717637 32 7823ft 84kts
17-Mar-20 17:27 39.473891 -119.702294 30 8424ft 85kts
17-Mar-20 17:28 39.493996 -119.685975 33 9000ft 85kts
17-Mar-20 17:29 39.514135 -119.669232 32 9549ft 87kts
17-Mar-20 17:29 39.530409 -119.670703 277 9957ft 90kts
17-Mar-20 17:30 39.521774 -119.705947 256 10011ft 113kts
17-Mar-20 17:32 39.513193 -119.754537 256 10144ft 114kts
17-Mar-20 17:33 39.505834 -119.793370 256 10487ft 111kts
17-Mar-20 17:33 39.499834 -119.825842 257 10728ft 111kts
17-Mar-20 17:35 39.491881 -119.867542 256 11422ft 77kts
17-Mar-20 17:36 39.487736 -119.893451 254 11913ft 72kts
17-Mar-20 17:36 39.483055 -119.916633 250 12017ft 91kts
17-Mar-20 17:38 39.475796 -119.956970 252 12015ft 102kts
17-Mar-20 17:38 39.470238 -119.987116 252 12015ft 103kts
17-Mar-20 17:39 39.463775 -120.021983 251 12014ft 97kts
17-Mar-20 17:40 39.457454 -120.055714 251 12015ft 96kts
17-Mar-20 17:41 39.451143 -120.089445 251 12015ft 96kts
17-Mar-20 17:42 39.444859 -120.123040 251 12015ft 96kts
17-Mar-20 17:43 39.438588 -120.156516 251 12015ft 96kts
17-Mar-20 17:45 39.431239 -120.195685 251 12016ft 95kts
17-Mar-20 17:45 39.425992 -120.223598 251 12016ft 95kts
17-Mar-20 17:46 39.419701 -120.257007 251 12020ft 95kts
17-Mar-20 17:47 39.413398 -120.290387 251 12030ft 95kts
17-Mar-20 17:48 39.407103 -120.323717 251 12040ft 95kts
17-Mar-20 17:49 39.400807 -120.356989 251 12050ft 95kts
17-Mar-20 17:50 39.394502 -120.390141 251 12060ft 95kts
17-Mar-20 17:51 39.388144 -120.423371 251 12070ft 95kts
17-Mar-20 17:52 39.381800 -120.456625 251 12080ft 95kts
17-Mar-20 17:53 39.375485 -120.489743 251 12088ft 95kts
17-Mar-20 17:54 39.369147 -120.523012 251 12088ft 95kts
17-Mar-20 17:55 39.362792 -120.556316 251 12088ft 95kts
17-Mar-20 17:56 39.356419 -120.589631 251 12088ft 95kts
17-Mar-20 17:57 39.350036 -120.622919 251 12088ft 95kts
17-Mar-20 17:58 39.335068 -120.649112 224 11911ft 91kts
17-Mar-20 17:59 39.315155 -120.671036 224 11068ft 96kts
17-Mar-20 18:00 39.294178 -120.693095 225 10333ft 98kts
17-Mar-20 18:01 39.272713 -120.715270 226 9684ft 101kts
17-Mar-20 18:02 39.250505 -120.738059 225 9121ft 102kts
17-Mar-20 18:03 39.228118 -120.760972 226 8601ft 104kts
17-Mar-20 18:04 39.205274 -120.784310 226 8140ft 105kts
17-Mar-20 18:05 39.183803 -120.805801 225 8102ft 100kts
17-Mar-20 18:06 39.159499 -120.830884 226 8103ft 119kts
17-Mar-20 18:07 39.133722 -120.857599 211 8102ft 115kts
17-Mar-20 18:08 39.109242 -120.882368 211 8108ft 109kts
17-Mar-20 18:09 39.085431 -120.906523 212 8113ft 108kts
17-Mar-20 18:10 39.061909 -120.930420 212 8119ft 107kts
17-Mar-20 18:11 39.038516 -120.954179 213 8124ft 106kts
17-Mar-20 18:12 39.015119 -120.977919 213 8125ft 108kts
17-Mar-20 18:13 38.991232 -121.002136 213 8126ft 110kts
17-Mar-20 18:14 38.966861 -121.026827 213 8126ft 112kts
17-Mar-20 18:15 38.942068 -121.051925 214 8126ft 114kts
17-Mar-20 18:16 38.916945 -121.077335 214 8126ft 115kts
17-Mar-20 18:17 38.891404 -121.103142 214 8128ft 117kts
17-Mar-20 18:18 38.865645 -121.129147 215 8128ft 118kts
17-Mar-20 18:19 38.839817 -121.155196 215 8128ft 118kts
17-Mar-20 18:20 38.814030 -121.181178 216 8128ft 118kts
17-Mar-20 18:21 38.788197 -121.207182 216 8128ft 118kts
17-Mar-20 18:22 38.762300 -121.233228 216 8128ft 118kts
17-Mar-20 18:23 38.736439 -121.259211 217 8128ft 118kts
17-Mar-20 18:24 38.710541 -121.285205 217 8128ft 118kts
17-Mar-20 18:25 38.684662 -121.311158 217 8129ft 118kts
17-Mar-20 18:26 38.658824 -121.337042 217 8130ft 118kts
17-Mar-20 18:27 38.633000 -121.362888 217 8131ft 118kts
17-Mar-20 18:28 38.607138 -121.388747 217 8132ft 117kts
17-Mar-20 18:29 38.581403 -121.414455 217 8134ft 117kts
17-Mar-20 18:30 38.555647 -121.440160 217 8136ft 117kts
17-Mar-20 18:31 38.529843 -121.465892 217 8137ft 117kts
17-Mar-20 18:32 38.504024 -121.491613 217 8137ft 117kts
17-Mar-20 18:33 38.478252 -121.517263 217 8136ft 117kts
17-Mar-20 18:34 38.452505 -121.542864 217 8136ft 117kts
17-Mar-20 18:35 38.422295 -121.557588 195 8136ft 117kts
17-Mar-20 18:36 38.390596 -121.567998 194 8136ft 117kts
17-Mar-20 18:37 38.358916 -121.577999 194 8136ft 117kts
17-Mar-20 18:38 38.327004 -121.587968 194 8106ft 121kts
17-Mar-20 18:39 38.294179 -121.598196 195 8017ft 119kts
17-Mar-20 18:40 38.262305 -121.608145 195 7682ft 118kts
17-Mar-20 18:41 38.230299 -121.618127 195 6985ft 118kts
17-Mar-20 18:42 38.198323 -121.628057 195 6304ft 118kts
17-Mar-20 18:43 38.166455 -121.637937 195 5642ft 118kts
17-Mar-20 18:44 38.134555 -121.647815 195 5039ft 116kts
17-Mar-20 18:45 38.102773 -121.657585 194 5017ft 118kts
17-Mar-20 18:46 38.070737 -121.667465 194 5018ft 118kts
17-Mar-20 18:47 38.039012 -121.677252 194 5020ft 118kts
17-Mar-20 18:48 38.006520 -121.687273 195 5022ft 119kts
17-Mar-20 18:49 37.974464 -121.697222 190 5022ft 117kts
17-Mar-20 18:50 37.942679 -121.706973 190 4996ft 117kts
17-Mar-20 18:51 37.911270 -121.716623 190 4997ft 116kts
17-Mar-20 18:52 37.879936 -121.726247 190 4998ft 116kts
17-Mar-20 18:53 37.848559 -121.735883 190 4998ft 116kts
17-Mar-20 18:54 37.817236 -121.745496 190 4998ft 115kts
17-Mar-20 18:55 37.786102 -121.755049 190 4999ft 115kts
17-Mar-20 18:56 37.754817 -121.764643 190 4999ft 115kts
17-Mar-20 18:57 37.723676 -121.774174 190 5000ft 115kts
17-Mar-20 18:58 37.692212 -121.783795 190 4999ft 116kts
17-Mar-20 18:59 37.660729 -121.793415 190 4999ft 116kts
17-Mar-20 19:00 37.629163 -121.803052 190 4999ft 116kts
17-Mar-20 19:01 37.598099 -121.814819 200 4999ft 118kts
17-Mar-20 19:02 37.568251 -121.831807 201 5013ft 119kts
17-Mar-20 19:03 37.538440 -121.849468 226 5025ft 118kts
17-Mar-20 19:04 37.515421 -121.879039 230 4866ft 117kts
17-Mar-20 19:05 37.492374 -121.907920 229 4165ft 116kts
17-Mar-20 19:06 37.470136 -121.935524 226 4016ft 111kts
17-Mar-20 19:07 37.447962 -121.963159 221 4013ft 115kts
17-Mar-20 19:08 37.424574 -121.992224 222 4023ft 119kts
17-Mar-20 19:09 37.401145 -122.022654 224 4010ft 121kts
17-Mar-20 19:10 37.379989 -122.054704 266 3987ft 125kts
17-Mar-20 19:11 37.398172 -122.090412 308 3336ft 119kts
17-Mar-20 19:12 37.417814 -122.120671 314 2750ft 111kts
17-Mar-20 19:13 37.438168 -122.149527 310 2178ft 110kts
17-Mar-20 19:14 37.457774 -122.179004 309 1505ft 110kts
17-Mar-20 19:15 37.476999 -122.207101 311 897ft 91kts
17-Mar-20 19:16 37.493340 -122.228613 318 516ft 72kts
17-Mar-20 19:17 37.506939 -122.244009 318 118ft 62kts
17-Mar-20 19:18 37.513150 -122.249380 34 7ft 0kts
17-Mar-20 19:19 37.513150 -122.249380 34 7ft 0kts

Navigation Log

Ident Type
Flight plan parsing failed, navigation log unavailable